sensor_id;sensor_type;location;lat;lon;timestamp;temperature;humidity
18502;DHT22;68437;52.236;5.710;2023-08-17T00:01:34;17.50;99.90
18502;DHT22;68437;52.236;5.710;2023-08-17T00:04:01;17.40;99.90
18502;DHT22;68437;52.236;5.710;2023-08-17T00:06:27;17.40;99.90
18502;DHT22;68437;52.236;5.710;2023-08-17T00:08:55;17.40;99.90
18502;DHT22;68437;52.236;5.710;2023-08-17T00:11:22;17.30;99.90
18502;DHT22;68437;52.236;5.710;2023-08-17T00:13:50;17.30;99.90
18502;DHT22;68437;52.236;5.710;2023-08-17T00:16:18;17.30;99.90
18502;DHT22;68437;52.236;5.710;2023-08-17T00:18:45;17.30;99.90
18502;DHT22;68437;52.236;5.710;2023-08-17T00:21:12;17.20;99.90
18502;DHT22;68437;52.236;5.710;2023-08-17T00:23:39;17.10;99.90
18502;DHT22;68437;52.236;5.710;2023-08-17T00:26:06;17.10;99.90
18502;DHT22;68437;52.236;5.710;2023-08-17T00:28:33;17.20;99.90
18502;DHT22;68437;52.236;5.710;2023-08-17T00:31:01;17.10;99.90
18502;DHT22;68437;52.236;5.710;2023-08-17T00:33:28;17.10;99.90
18502;DHT22;68437;52.236;5.710;2023-08-17T00:35:55;17.00;99.90
18502;DHT22;68437;52.236;5.710;2023-08-17T00:38:22;16.90;99.90
18502;DHT22;68437;52.236;5.710;2023-08-17T00:40:49;16.90;99.90
18502;DHT22;68437;52.236;5.710;2023-08-17T00:43:16;16.90;99.90
18502;DHT22;68437;52.236;5.710;2023-08-17T00:45:44;16.80;99.90
18502;DHT22;68437;52.236;5.710;2023-08-17T00:48:13;16.80;99.90
18502;DHT22;68437;52.236;5.710;2023-08-17T00:50:41;16.70;99.90
18502;DHT22;68437;52.236;5.710;2023-08-17T00:53:08;16.70;99.90
18502;DHT22;68437;52.236;5.710;2023-08-17T00:55:39;16.70;99.90
18502;DHT22;68437;52.236;5.710;2023-08-17T00:58:06;16.70;99.90
18502;DHT22;68437;52.236;5.710;2023-08-17T01:00:33;16.60;99.90
18502;DHT22;68437;52.236;5.710;2023-08-17T01:03:00;16.60;99.90
18502;DHT22;68437;52.236;5.710;2023-08-17T01:05:29;16.50;99.90
18502;DHT22;68437;52.236;5.710;2023-08-17T01:07:58;16.50;99.90
18502;DHT22;68437;52.236;5.710;2023-08-17T01:10:30;16.50;99.90
18502;DHT22;68437;52.236;5.710;2023-08-17T01:13:04;16.50;99.90
18502;DHT22;68437;52.236;5.710;2023-08-17T01:15:36;16.50;99.90
18502;DHT22;68437;52.236;5.710;2023-08-17T01:18:11;16.50;99.90
18502;DHT22;68437;52.236;5.710;2023-08-17T01:20:43;16.40;99.90
18502;DHT22;68437;52.236;5.710;2023-08-17T01:23:12;16.40;99.90
18502;DHT22;68437;52.236;5.710;2023-08-17T01:25:39;16.40;99.90
18502;DHT22;68437;52.236;5.710;2023-08-17T01:28:06;16.40;99.90
18502;DHT22;68437;52.236;5.710;2023-08-17T01:30:37;16.40;99.90
18502;DHT22;68437;52.236;5.710;2023-08-17T01:33:08;16.40;99.90
18502;DHT22;68437;52.236;5.710;2023-08-17T01:35:39;16.40;99.90
18502;DHT22;68437;52.236;5.710;2023-08-17T01:38:14;16.40;99.90
18502;DHT22;68437;52.236;5.710;2023-08-17T01:40:43;16.30;99.90
18502;DHT22;68437;52.236;5.710;2023-08-17T01:43:12;16.40;99.90
18502;DHT22;68437;52.236;5.710;2023-08-17T01:45:40;16.40;99.90
18502;DHT22;68437;52.236;5.710;2023-08-17T01:48:07;16.40;99.90
18502;DHT22;68437;52.236;5.710;2023-08-17T01:50:33;16.30;99.90
18502;DHT22;68437;52.236;5.710;2023-08-17T01:53:00;16.30;99.90
18502;DHT22;68437;52.236;5.710;2023-08-17T01:55:29;16.30;99.90
18502;DHT22;68437;52.236;5.710;2023-08-17T01:57:55;16.30;99.90
18502;DHT22;68437;52.236;5.710;2023-08-17T02:00:22;16.40;99.90
18502;DHT22;68437;52.236;5.710;2023-08-17T02:02:49;16.40;99.90
18502;DHT22;68437;52.236;5.710;2023-08-17T02:05:17;16.40;99.90
18502;DHT22;68437;52.236;5.710;2023-08-17T02:07:43;16.40;99.90
18502;DHT22;68437;52.236;5.710;2023-08-17T02:10:10;16.40;99.90
18502;DHT22;68437;52.236;5.710;2023-08-17T02:12:39;16.40;99.90
18502;DHT22;68437;52.236;5.710;2023-08-17T02:15:07;16.40;99.90
18502;DHT22;68437;52.236;5.710;2023-08-17T02:17:34;16.40;99.90
18502;DHT22;68437;52.236;5.710;2023-08-17T02:20:01;16.40;99.90
18502;DHT22;68437;52.236;5.710;2023-08-17T02:22:28;16.40;99.90
18502;DHT22;68437;52.236;5.710;2023-08-17T02:24:55;16.40;99.90
18502;DHT22;68437;52.236;5.710;2023-08-17T02:27:22;16.40;99.90
18502;DHT22;68437;52.236;5.710;2023-08-17T02:29:50;16.40;99.90
18502;DHT22;68437;52.236;5.710;2023-08-17T02:32:17;16.40;99.90
18502;DHT22;68437;52.236;5.710;2023-08-17T02:34:44;16.40;99.90
18502;DHT22;68437;52.236;5.710;2023-08-17T02:37:11;16.40;99.90
18502;DHT22;68437;52.236;5.710;2023-08-17T02:39:39;16.30;99.90
18502;DHT22;68437;52.236;5.710;2023-08-17T02:42:06;16.30;99.90
18502;DHT22;68437;52.236;5.710;2023-08-17T02:44:33;16.30;99.90
18502;DHT22;68437;52.236;5.710;2023-08-17T02:47:01;16.30;99.90
18502;DHT22;68437;52.236;5.710;2023-08-17T02:49:28;16.20;99.90
18502;DHT22;68437;52.236;5.710;2023-08-17T02:51:55;16.20;99.90
18502;DHT22;68437;52.236;5.710;2023-08-17T02:54:22;16.10;99.90
18502;DHT22;68437;52.236;5.710;2023-08-17T02:56:49;16.00;99.90
18502;DHT22;68437;52.236;5.710;2023-08-17T02:59:16;16.10;99.90
18502;DHT22;68437;52.236;5.710;2023-08-17T03:01:45;16.10;99.90
18502;DHT22;68437;52.236;5.710;2023-08-17T03:04:13;16.00;99.90
18502;DHT22;68437;52.236;5.710;2023-08-17T03:06:40;16.00;99.90
18502;DHT22;68437;52.236;5.710;2023-08-17T03:09:07;16.00;99.90
18502;DHT22;68437;52.236;5.710;2023-08-17T03:11:34;16.00;99.90
18502;DHT22;68437;52.236;5.710;2023-08-17T03:14:00;16.00;99.90
18502;DHT22;68437;52.236;5.710;2023-08-17T03:16:27;16.00;99.90
18502;DHT22;68437;52.236;5.710;2023-08-17T03:18:55;16.00;99.90
18502;DHT22;68437;52.236;5.710;2023-08-17T03:21:24;16.00;99.90
18502;DHT22;68437;52.236;5.710;2023-08-17T03:23:51;16.00;99.90
18502;DHT22;68437;52.236;5.710;2023-08-17T03:26:19;16.00;99.90
18502;DHT22;68437;52.236;5.710;2023-08-17T03:28:46;16.00;99.90
18502;DHT22;68437;52.236;5.710;2023-08-17T03:31:12;15.90;99.90
18502;DHT22;68437;52.236;5.710;2023-08-17T03:33:39;16.10;99.90
18502;DHT22;68437;52.236;5.710;2023-08-17T03:36:07;16.10;99.90
18502;DHT22;68437;52.236;5.710;2023-08-17T03:38:35;16.10;99.90
18502;DHT22;68437;52.236;5.710;2023-08-17T03:41:04;16.00;99.90
18502;DHT22;68437;52.236;5.710;2023-08-17T03:43:31;16.10;99.90
18502;DHT22;68437;52.236;5.710;2023-08-17T03:45:58;16.10;99.90
18502;DHT22;68437;52.236;5.710;2023-08-17T03:48:25;16.10;99.90
18502;DHT22;68437;52.236;5.710;2023-08-17T03:50:52;16.10;99.90
18502;DHT22;68437;52.236;5.710;2023-08-17T03:53:19;16.00;99.90
18502;DHT22;68437;52.236;5.710;2023-08-17T03:55:48;16.00;99.90
18502;DHT22;68437;52.236;5.710;2023-08-17T03:58:17;16.00;99.90
18502;DHT22;68437;52.236;5.710;2023-08-17T04:00:49;16.00;99.90
18502;DHT22;68437;52.236;5.710;2023-08-17T04:03:16;16.00;99.90
18502;DHT22;68437;52.236;5.710;2023-08-17T04:05:43;16.00;99.90
18502;DHT22;68437;52.236;5.710;2023-08-17T04:08:10;16.00;99.90
18502;DHT22;68437;52.236;5.710;2023-08-17T04:10:37;16.00;99.90
18502;DHT22;68437;52.236;5.710;2023-08-17T04:13:05;16.00;99.90
18502;DHT22;68437;52.236;5.710;2023-08-17T04:15:32;16.00;99.90
18502;DHT22;68437;52.236;5.710;2023-08-17T04:17:59;16.00;99.90
18502;DHT22;68437;52.236;5.710;2023-08-17T04:20:26;16.00;99.90
18502;DHT22;68437;52.236;5.710;2023-08-17T04:22:52;16.00;99.90
18502;DHT22;68437;52.236;5.710;2023-08-17T04:25:19;16.00;99.90
18502;DHT22;68437;52.236;5.710;2023-08-17T04:27:46;15.90;99.90
18502;DHT22;68437;52.236;5.710;2023-08-17T04:30:14;15.90;99.90
18502;DHT22;68437;52.236;5.710;2023-08-17T04:32:41;16.00;99.90
18502;DHT22;68437;52.236;5.710;2023-08-17T04:35:09;15.90;99.90
18502;DHT22;68437;52.236;5.710;2023-08-17T04:37:36;15.90;99.90
18502;DHT22;68437;52.236;5.710;2023-08-17T04:40:04;16.00;99.90
18502;DHT22;68437;52.236;5.710;2023-08-17T04:42:31;16.00;99.90
18502;DHT22;68437;52.236;5.710;2023-08-17T04:44:59;15.90;99.90
18502;DHT22;68437;52.236;5.710;2023-08-17T04:47:27;15.90;99.90
18502;DHT22;68437;52.236;5.710;2023-08-17T04:49:54;15.90;99.90
18502;DHT22;68437;52.236;5.710;2023-08-17T04:52:21;15.90;99.90
18502;DHT22;68437;52.236;5.710;2023-08-17T04:54:48;15.90;99.90
18502;DHT22;68437;52.236;5.710;2023-08-17T04:57:15;15.90;99.90
18502;DHT22;68437;52.236;5.710;2023-08-17T04:59:43;15.90;99.90
18502;DHT22;68437;52.236;5.710;2023-08-17T05:02:10;15.90;99.90
18502;DHT22;68437;52.236;5.710;2023-08-17T05:04:38;15.90;99.90
18502;DHT22;68437;52.236;5.710;2023-08-17T05:07:05;15.90;99.90
18502;DHT22;68437;52.236;5.710;2023-08-17T05:09:33;15.90;99.90
18502;DHT22;68437;52.236;5.710;2023-08-17T05:12:00;15.90;99.90
18502;DHT22;68437;52.236;5.710;2023-08-17T05:14:27;15.90;99.90
18502;DHT22;68437;52.236;5.710;2023-08-17T05:16:54;15.90;99.90
18502;DHT22;68437;52.236;5.710;2023-08-17T05:19:21;15.90;99.90
18502;DHT22;68437;52.236;5.710;2023-08-17T05:21:49;16.00;99.90
18502;DHT22;68437;52.236;5.710;2023-08-17T05:24:16;16.00;99.90
18502;DHT22;68437;52.236;5.710;2023-08-17T05:26:43;16.10;99.90
18502;DHT22;68437;52.236;5.710;2023-08-17T05:29:10;16.10;99.90
18502;DHT22;68437;52.236;5.710;2023-08-17T05:31:37;16.10;99.90
18502;DHT22;68437;52.236;5.710;2023-08-17T05:34:04;16.20;99.90
18502;DHT22;68437;52.236;5.710;2023-08-17T05:36:31;16.20;99.90
18502;DHT22;68437;52.236;5.710;2023-08-17T05:38:59;16.20;99.90
18502;DHT22;68437;52.236;5.710;2023-08-17T05:41:29;16.30;99.90
18502;DHT22;68437;52.236;5.710;2023-08-17T05:43:56;16.40;99.90
18502;DHT22;68437;52.236;5.710;2023-08-17T05:46:23;16.40;99.90
18502;DHT22;68437;52.236;5.710;2023-08-17T05:48:49;16.50;99.90
18502;DHT22;68437;52.236;5.710;2023-08-17T05:51:16;16.50;99.90
18502;DHT22;68437;52.236;5.710;2023-08-17T05:53:43;16.50;99.90
18502;DHT22;68437;52.236;5.710;2023-08-17T05:56:12;16.50;99.90
18502;DHT22;68437;52.236;5.710;2023-08-17T05:58:39;16.60;99.90
18502;DHT22;68437;52.236;5.710;2023-08-17T06:01:07;16.60;99.90
18502;DHT22;68437;52.236;5.710;2023-08-17T06:03:34;16.60;99.90
18502;DHT22;68437;52.236;5.710;2023-08-17T06:06:04;16.60;99.90
18502;DHT22;68437;52.236;5.710;2023-08-17T06:08:32;16.60;99.90
18502;DHT22;68437;52.236;5.710;2023-08-17T06:10:59;16.60;99.90
18502;DHT22;68437;52.236;5.710;2023-08-17T06:13:27;16.60;99.90
18502;DHT22;68437;52.236;5.710;2023-08-17T06:15:56;16.60;99.90
18502;DHT22;68437;52.236;5.710;2023-08-17T06:18:23;16.60;99.90
18502;DHT22;68437;52.236;5.710;2023-08-17T06:20:50;16.60;99.90
18502;DHT22;68437;52.236;5.710;2023-08-17T06:23:19;16.60;99.90
18502;DHT22;68437;52.236;5.710;2023-08-17T06:25:46;16.60;99.90
18502;DHT22;68437;52.236;5.710;2023-08-17T06:28:14;16.60;99.90
18502;DHT22;68437;52.236;5.710;2023-08-17T06:30:42;16.60;99.90
18502;DHT22;68437;52.236;5.710;2023-08-17T06:33:12;16.60;99.90
18502;DHT22;68437;52.236;5.710;2023-08-17T06:35:39;16.60;99.90
18502;DHT22;68437;52.236;5.710;2023-08-17T06:38:06;16.60;99.90
18502;DHT22;68437;52.236;5.710;2023-08-17T06:40:33;16.60;99.90
18502;DHT22;68437;52.236;5.710;2023-08-17T06:43:00;16.60;99.90
18502;DHT22;68437;52.236;5.710;2023-08-17T06:45:27;16.70;99.90
18502;DHT22;68437;52.236;5.710;2023-08-17T06:47:56;16.70;99.90
18502;DHT22;68437;52.236;5.710;2023-08-17T06:50:23;16.70;99.90
18502;DHT22;68437;52.236;5.710;2023-08-17T06:52:50;16.70;99.90
18502;DHT22;68437;52.236;5.710;2023-08-17T06:55:17;16.80;99.90
18502;DHT22;68437;52.236;5.710;2023-08-17T06:57:44;16.70;99.90
18502;DHT22;68437;52.236;5.710;2023-08-17T07:00:11;16.70;99.90
18502;DHT22;68437;52.236;5.710;2023-08-17T07:02:38;16.70;99.90
18502;DHT22;68437;52.236;5.710;2023-08-17T07:05:07;16.70;99.90
18502;DHT22;68437;52.236;5.710;2023-08-17T07:07:34;16.70;99.90
18502;DHT22;68437;52.236;5.710;2023-08-17T07:10:01;16.70;99.90
18502;DHT22;68437;52.236;5.710;2023-08-17T07:12:28;16.80;99.90
18502;DHT22;68437;52.236;5.710;2023-08-17T07:14:55;16.80;99.90
18502;DHT22;68437;52.236;5.710;2023-08-17T07:17:22;16.90;99.90
18502;DHT22;68437;52.236;5.710;2023-08-17T07:19:48;17.00;99.90
18502;DHT22;68437;52.236;5.710;2023-08-17T07:22:17;17.10;99.90
18502;DHT22;68437;52.236;5.710;2023-08-17T07:24:43;17.10;99.90
18502;DHT22;68437;52.236;5.710;2023-08-17T07:27:10;17.20;99.90
18502;DHT22;68437;52.236;5.710;2023-08-17T07:29:40;17.30;99.90
18502;DHT22;68437;52.236;5.710;2023-08-17T07:32:07;17.40;99.90
18502;DHT22;68437;52.236;5.710;2023-08-17T07:34:36;17.40;99.90
18502;DHT22;68437;52.236;5.710;2023-08-17T07:37:04;17.40;99.90
18502;DHT22;68437;52.236;5.710;2023-08-17T07:39:33;17.50;99.90
18502;DHT22;68437;52.236;5.710;2023-08-17T07:42:01;17.50;99.90
18502;DHT22;68437;52.236;5.710;2023-08-17T07:44:28;17.50;99.90
18502;DHT22;68437;52.236;5.710;2023-08-17T07:46:57;17.50;99.90
18502;DHT22;68437;52.236;5.710;2023-08-17T07:49:24;17.50;99.90
18502;DHT22;68437;52.236;5.710;2023-08-17T07:51:51;17.50;99.90
18502;DHT22;68437;52.236;5.710;2023-08-17T07:54:18;17.60;99.90
18502;DHT22;68437;52.236;5.710;2023-08-17T07:56:46;17.70;99.90
18502;DHT22;68437;52.236;5.710;2023-08-17T07:59:13;17.80;99.90
18502;DHT22;68437;52.236;5.710;2023-08-17T08:01:40;17.90;99.90
18502;DHT22;68437;52.236;5.710;2023-08-17T08:04:07;18.00;99.90
18502;DHT22;68437;52.236;5.710;2023-08-17T08:06:34;18.10;99.90
18502;DHT22;68437;52.236;5.710;2023-08-17T08:09:01;18.20;99.90
18502;DHT22;68437;52.236;5.710;2023-08-17T08:11:28;18.30;99.90
18502;DHT22;68437;52.236;5.710;2023-08-17T08:13:57;18.30;99.90
18502;DHT22;68437;52.236;5.710;2023-08-17T08:16:24;18.40;99.90
18502;DHT22;68437;52.236;5.710;2023-08-17T08:18:51;18.50;99.90
18502;DHT22;68437;52.236;5.710;2023-08-17T08:21:18;18.60;99.90
18502;DHT22;68437;52.236;5.710;2023-08-17T08:23:45;18.80;99.90
18502;DHT22;68437;52.236;5.710;2023-08-17T08:26:12;18.80;99.90
18502;DHT22;68437;52.236;5.710;2023-08-17T08:28:39;18.70;99.90
18502;DHT22;68437;52.236;5.710;2023-08-17T08:31:07;18.70;99.90
18502;DHT22;68437;52.236;5.710;2023-08-17T08:33:34;18.70;99.90
18502;DHT22;68437;52.236;5.710;2023-08-17T08:36:02;18.80;99.90
18502;DHT22;68437;52.236;5.710;2023-08-17T08:38:31;18.80;99.90
18502;DHT22;68437;52.236;5.710;2023-08-17T08:40:58;18.80;99.90
18502;DHT22;68437;52.236;5.710;2023-08-17T08:43:25;18.90;99.90
18502;DHT22;68437;52.236;5.710;2023-08-17T08:45:52;18.90;99.90
18502;DHT22;68437;52.236;5.710;2023-08-17T08:48:25;18.90;99.90
18502;DHT22;68437;52.236;5.710;2023-08-17T08:50:54;18.90;99.90
18502;DHT22;68437;52.236;5.710;2023-08-17T08:53:29;18.90;99.90
18502;DHT22;68437;52.236;5.710;2023-08-17T08:55:59;18.90;99.90
18502;DHT22;68437;52.236;5.710;2023-08-17T08:58:26;18.90;99.90
18502;DHT22;68437;52.236;5.710;2023-08-17T09:00:54;19.00;99.90
18502;DHT22;68437;52.236;5.710;2023-08-17T09:03:25;18.90;99.90
18502;DHT22;68437;52.236;5.710;2023-08-17T09:05:53;18.80;99.90
18502;DHT22;68437;52.236;5.710;2023-08-17T09:08:21;18.70;99.90
18502;DHT22;68437;52.236;5.710;2023-08-17T09:10:49;18.60;99.90
18502;DHT22;68437;52.236;5.710;2023-08-17T09:13:16;18.60;99.90
18502;DHT22;68437;52.236;5.710;2023-08-17T09:15:43;18.60;99.90
18502;DHT22;68437;52.236;5.710;2023-08-17T09:18:10;18.80;99.90
18502;DHT22;68437;52.236;5.710;2023-08-17T09:20:42;18.80;99.90
18502;DHT22;68437;52.236;5.710;2023-08-17T09:23:11;18.80;99.90
18502;DHT22;68437;52.236;5.710;2023-08-17T09:25:40;18.90;99.90
18502;DHT22;68437;52.236;5.710;2023-08-17T09:28:08;18.90;99.90
18502;DHT22;68437;52.236;5.710;2023-08-17T09:30:49;19.00;99.90
18502;DHT22;68437;52.236;5.710;2023-08-17T09:33:18;18.90;99.90
18502;DHT22;68437;52.236;5.710;2023-08-17T09:35:47;19.00;99.90
18502;DHT22;68437;52.236;5.710;2023-08-17T09:38:14;19.00;99.90
18502;DHT22;68437;52.236;5.710;2023-08-17T09:40:41;19.00;99.90
18502;DHT22;68437;52.236;5.710;2023-08-17T09:43:09;19.00;99.90
18502;DHT22;68437;52.236;5.710;2023-08-17T09:45:37;19.00;99.90
18502;DHT22;68437;52.236;5.710;2023-08-17T09:48:04;19.00;99.90
18502;DHT22;68437;52.236;5.710;2023-08-17T09:50:31;18.90;99.90
18502;DHT22;68437;52.236;5.710;2023-08-17T09:52:59;18.90;99.90
18502;DHT22;68437;52.236;5.710;2023-08-17T09:55:26;19.00;99.90
18502;DHT22;68437;52.236;5.710;2023-08-17T09:57:53;19.10;99.90
18502;DHT22;68437;52.236;5.710;2023-08-17T10:00:21;19.10;99.90
18502;DHT22;68437;52.236;5.710;2023-08-17T10:02:49;19.10;99.90
18502;DHT22;68437;52.236;5.710;2023-08-17T10:05:20;19.20;99.90
18502;DHT22;68437;52.236;5.710;2023-08-17T10:07:49;19.30;99.90
18502;DHT22;68437;52.236;5.710;2023-08-17T10:10:24;19.30;99.90
18502;DHT22;68437;52.236;5.710;2023-08-17T10:12:57;19.20;99.90
18502;DHT22;68437;52.236;5.710;2023-08-17T10:15:29;19.20;99.90
18502;DHT22;68437;52.236;5.710;2023-08-17T10:18:02;19.10;99.90
18502;DHT22;68437;52.236;5.710;2023-08-17T10:20:34;19.00;99.90
18502;DHT22;68437;52.236;5.710;2023-08-17T10:23:07;18.90;99.90
18502;DHT22;68437;52.236;5.710;2023-08-17T10:25:41;18.90;99.90
18502;DHT22;68437;52.236;5.710;2023-08-17T10:28:09;19.00;99.90
18502;DHT22;68437;52.236;5.710;2023-08-17T10:30:36;19.10;99.90
18502;DHT22;68437;52.236;5.710;2023-08-17T10:33:05;19.10;99.90
18502;DHT22;68437;52.236;5.710;2023-08-17T10:35:33;19.20;99.90
18502;DHT22;68437;52.236;5.710;2023-08-17T10:38:00;19.20;99.90
18502;DHT22;68437;52.236;5.710;2023-08-17T10:40:32;19.30;99.90
18502;DHT22;68437;52.236;5.710;2023-08-17T10:43:02;19.20;99.90
18502;DHT22;68437;52.236;5.710;2023-08-17T10:45:30;19.10;99.90
18502;DHT22;68437;52.236;5.710;2023-08-17T10:48:26;19.10;99.90
18502;DHT22;68437;52.236;5.710;2023-08-17T10:51:05;19.00;99.90
18502;DHT22;68437;52.236;5.710;2023-08-17T10:53:36;19.10;99.90
18502;DHT22;68437;52.236;5.710;2023-08-17T10:56:07;19.00;99.90
18502;DHT22;68437;52.236;5.710;2023-08-17T10:58:36;19.00;99.90
18502;DHT22;68437;52.236;5.710;2023-08-17T11:01:03;19.00;99.90
18502;DHT22;68437;52.236;5.710;2023-08-17T11:03:31;19.00;99.90
18502;DHT22;68437;52.236;5.710;2023-08-17T11:06:14;19.00;99.90
18502;DHT22;68437;52.236;5.710;2023-08-17T11:08:52;19.10;99.90
18502;DHT22;68437;52.236;5.710;2023-08-17T11:11:21;19.10;99.90
18502;DHT22;68437;52.236;5.710;2023-08-17T11:13:50;19.20;99.90
18502;DHT22;68437;52.236;5.710;2023-08-17T11:16:18;19.20;99.90
18502;DHT22;68437;52.236;5.710;2023-08-17T11:18:46;19.20;99.90
18502;DHT22;68437;52.236;5.710;2023-08-17T11:21:14;19.20;99.90
18502;DHT22;68437;52.236;5.710;2023-08-17T11:23:42;19.10;99.90
18502;DHT22;68437;52.236;5.710;2023-08-17T11:26:09;19.10;99.90
18502;DHT22;68437;52.236;5.710;2023-08-17T11:28:36;19.00;99.90
18502;DHT22;68437;52.236;5.710;2023-08-17T11:31:07;19.10;99.90
18502;DHT22;68437;52.236;5.710;2023-08-17T11:33:35;19.10;99.90
18502;DHT22;68437;52.236;5.710;2023-08-17T11:36:04;19.10;99.90
18502;DHT22;68437;52.236;5.710;2023-08-17T11:38:32;19.20;99.90
18502;DHT22;68437;52.236;5.710;2023-08-17T11:41:00;19.20;99.90
18502;DHT22;68437;52.236;5.710;2023-08-17T11:43:29;19.30;99.90
18502;DHT22;68437;52.236;5.710;2023-08-17T11:45:58;19.50;99.90
18502;DHT22;68437;52.236;5.710;2023-08-17T11:48:27;19.60;99.90
18502;DHT22;68437;52.236;5.710;2023-08-17T11:50:55;19.60;99.90
18502;DHT22;68437;52.236;5.710;2023-08-17T11:53:22;19.60;99.90
18502;DHT22;68437;52.236;5.710;2023-08-17T11:55:49;19.70;99.90
18502;DHT22;68437;52.236;5.710;2023-08-17T11:58:16;19.70;99.90
18502;DHT22;68437;52.236;5.710;2023-08-17T12:00:44;19.80;99.90
18502;DHT22;68437;52.236;5.710;2023-08-17T12:03:13;19.90;99.90
18502;DHT22;68437;52.236;5.710;2023-08-17T12:05:44;19.90;99.90
18502;DHT22;68437;52.236;5.710;2023-08-17T12:08:11;19.80;99.90
18502;DHT22;68437;52.236;5.710;2023-08-17T12:10:39;19.80;99.90
18502;DHT22;68437;52.236;5.710;2023-08-17T12:13:06;19.80;99.90
18502;DHT22;68437;52.236;5.710;2023-08-17T12:15:34;19.90;99.90
18502;DHT22;68437;52.236;5.710;2023-08-17T12:18:03;19.90;99.90
18502;DHT22;68437;52.236;5.710;2023-08-17T12:20:32;19.80;99.90
18502;DHT22;68437;52.236;5.710;2023-08-17T12:23:02;19.80;99.90
18502;DHT22;68437;52.236;5.710;2023-08-17T12:25:29;19.80;99.90
18502;DHT22;68437;52.236;5.710;2023-08-17T12:27:58;19.90;99.90
18502;DHT22;68437;52.236;5.710;2023-08-17T12:30:26;19.90;99.90
18502;DHT22;68437;52.236;5.710;2023-08-17T12:32:53;19.90;99.90
18502;DHT22;68437;52.236;5.710;2023-08-17T12:35:20;20.00;99.90
18502;DHT22;68437;52.236;5.710;2023-08-17T12:37:50;20.10;99.90
18502;DHT22;68437;52.236;5.710;2023-08-17T12:40:18;20.10;99.90
18502;DHT22;68437;52.236;5.710;2023-08-17T12:42:45;19.90;99.90
18502;DHT22;68437;52.236;5.710;2023-08-17T12:45:12;19.90;99.90
18502;DHT22;68437;52.236;5.710;2023-08-17T12:47:39;19.90;99.90
18502;DHT22;68437;52.236;5.710;2023-08-17T12:50:07;20.00;99.90
18502;DHT22;68437;52.236;5.710;2023-08-17T12:52:34;19.90;99.90
18502;DHT22;68437;52.236;5.710;2023-08-17T12:55:02;19.90;99.90
18502;DHT22;68437;52.236;5.710;2023-08-17T12:57:30;19.80;99.90
18502;DHT22;68437;52.236;5.710;2023-08-17T12:59:57;19.90;99.90
18502;DHT22;68437;52.236;5.710;2023-08-17T13:02:26;19.90;99.90
18502;DHT22;68437;52.236;5.710;2023-08-17T13:04:53;20.00;99.90
18502;DHT22;68437;52.236;5.710;2023-08-17T13:07:20;20.00;99.90
18502;DHT22;68437;52.236;5.710;2023-08-17T13:09:46;20.10;99.90
18502;DHT22;68437;52.236;5.710;2023-08-17T13:12:13;20.10;99.90
18502;DHT22;68437;52.236;5.710;2023-08-17T13:14:42;20.10;99.90
18502;DHT22;68437;52.236;5.710;2023-08-17T13:17:08;20.00;99.90
18502;DHT22;68437;52.236;5.710;2023-08-17T13:19:35;19.90;99.90
18502;DHT22;68437;52.236;5.710;2023-08-17T13:22:02;19.90;99.90
18502;DHT22;68437;52.236;5.710;2023-08-17T13:24:29;19.90;99.90
18502;DHT22;68437;52.236;5.710;2023-08-17T13:26:56;19.90;99.90
18502;DHT22;68437;52.236;5.710;2023-08-17T13:29:23;19.80;99.90
18502;DHT22;68437;52.236;5.710;2023-08-17T13:31:51;19.90;99.90
18502;DHT22;68437;52.236;5.710;2023-08-17T13:34:18;19.80;99.90
18502;DHT22;68437;52.236;5.710;2023-08-17T13:36:45;19.70;99.90
18502;DHT22;68437;52.236;5.710;2023-08-17T13:39:12;19.70;99.90
18502;DHT22;68437;52.236;5.710;2023-08-17T13:41:40;19.70;99.90
18502;DHT22;68437;52.236;5.710;2023-08-17T13:44:08;19.70;99.90
18502;DHT22;68437;52.236;5.710;2023-08-17T13:46:35;19.80;99.90
18502;DHT22;68437;52.236;5.710;2023-08-17T13:49:03;19.70;99.90
18502;DHT22;68437;52.236;5.710;2023-08-17T13:51:30;19.80;99.90
18502;DHT22;68437;52.236;5.710;2023-08-17T13:54:00;19.80;99.90
18502;DHT22;68437;52.236;5.710;2023-08-17T13:56:27;19.80;99.90
18502;DHT22;68437;52.236;5.710;2023-08-17T13:58:54;19.70;99.90
18502;DHT22;68437;52.236;5.710;2023-08-17T14:01:21;19.70;99.90
18502;DHT22;68437;52.236;5.710;2023-08-17T14:03:48;19.70;99.90
18502;DHT22;68437;52.236;5.710;2023-08-17T14:06:16;19.70;99.90
18502;DHT22;68437;52.236;5.710;2023-08-17T14:08:43;19.70;99.90
18502;DHT22;68437;52.236;5.710;2023-08-17T14:11:10;19.70;99.90
18502;DHT22;68437;52.236;5.710;2023-08-17T14:13:37;19.70;99.90
18502;DHT22;68437;52.236;5.710;2023-08-17T14:16:05;19.80;99.90
18502;DHT22;68437;52.236;5.710;2023-08-17T14:18:32;19.80;99.90
18502;DHT22;68437;52.236;5.710;2023-08-17T14:20:59;19.90;99.90
18502;DHT22;68437;52.236;5.710;2023-08-17T14:23:27;19.90;99.90
18502;DHT22;68437;52.236;5.710;2023-08-17T14:25:54;19.90;99.90
18502;DHT22;68437;52.236;5.710;2023-08-17T14:28:21;19.90;99.90
18502;DHT22;68437;52.236;5.710;2023-08-17T14:30:48;19.80;99.90
18502;DHT22;68437;52.236;5.710;2023-08-17T14:33:15;19.80;99.90
18502;DHT22;68437;52.236;5.710;2023-08-17T14:35:42;19.90;99.90
18502;DHT22;68437;52.236;5.710;2023-08-17T14:38:08;20.00;99.90
18502;DHT22;68437;52.236;5.710;2023-08-17T14:40:42;19.90;99.90
18502;DHT22;68437;52.236;5.710;2023-08-17T14:43:10;19.90;99.90
18502;DHT22;68437;52.236;5.710;2023-08-17T14:45:39;19.90;99.90
18502;DHT22;68437;52.236;5.710;2023-08-17T14:48:06;19.90;99.90
18502;DHT22;68437;52.236;5.710;2023-08-17T14:50:33;19.90;99.90
18502;DHT22;68437;52.236;5.710;2023-08-17T14:53:00;19.80;99.90
18502;DHT22;68437;52.236;5.710;2023-08-17T14:55:28;19.80;99.90
18502;DHT22;68437;52.236;5.710;2023-08-17T14:57:56;19.80;99.90
18502;DHT22;68437;52.236;5.710;2023-08-17T15:00:24;19.80;99.90
18502;DHT22;68437;52.236;5.710;2023-08-17T15:02:51;19.70;99.90
18502;DHT22;68437;52.236;5.710;2023-08-17T15:05:18;19.70;99.90
18502;DHT22;68437;52.236;5.710;2023-08-17T15:07:45;19.70;99.90
18502;DHT22;68437;52.236;5.710;2023-08-17T15:10:12;19.70;99.90
18502;DHT22;68437;52.236;5.710;2023-08-17T15:12:39;19.60;99.90
18502;DHT22;68437;52.236;5.710;2023-08-17T15:15:08;19.70;99.90
18502;DHT22;68437;52.236;5.710;2023-08-17T15:17:35;19.70;99.90
18502;DHT22;68437;52.236;5.710;2023-08-17T15:20:05;19.70;99.90
18502;DHT22;68437;52.236;5.710;2023-08-17T15:22:32;19.70;99.90
18502;DHT22;68437;52.236;5.710;2023-08-17T15:24:59;19.70;99.90
18502;DHT22;68437;52.236;5.710;2023-08-17T15:27:26;19.70;99.90
18502;DHT22;68437;52.236;5.710;2023-08-17T15:29:53;19.80;99.90
18502;DHT22;68437;52.236;5.710;2023-08-17T15:32:21;19.80;99.90
18502;DHT22;68437;52.236;5.710;2023-08-17T15:34:48;19.80;99.90